createdAt,value
2023-10-19T00:01:27.352Z,26.08
2023-10-19T00:05:33.600Z,27.50
2023-10-19T00:09:39.201Z,29.20
2023-10-19T00:13:41.479Z,28.20
2023-10-19T00:17:46.123Z,26.60
2023-10-19T00:21:56.293Z,28.23
2023-10-19T00:26:06.898Z,26.88
2023-10-19T00:30:09.770Z,23.05
2023-10-19T00:38:29.054Z,28.45
2023-10-19T00:42:32.679Z,30.80
2023-10-19T00:46:39.393Z,29.58
2023-10-19T00:50:42.112Z,30.50
2023-10-19T00:54:56.498Z,32.88
2023-10-19T00:59:02.036Z,29.95
2023-10-19T01:03:06.724Z,27.70
2023-10-19T01:07:13.548Z,25.98
2023-10-19T01:11:16.872Z,23.70
2023-10-19T01:15:30.108Z,23.17
2023-10-19T01:19:32.836Z,21.60
2023-10-19T01:23:36.797Z,18.92
2023-10-19T01:27:40.282Z,15.48
2023-10-19T01:31:56.937Z,17.83
2023-10-19T01:36:17.474Z,17.88
2023-10-19T01:40:21.962Z,16.77
2023-10-19T01:44:25.922Z,15.68
2023-10-19T01:48:37.473Z,17.35
2023-10-19T01:52:39.567Z,19.00
2023-10-19T01:56:44.879Z,19.80
2023-10-19T02:00:46.771Z,18.90
2023-10-19T02:04:52.606Z,18.60
2023-10-19T02:08:58.064Z,18.83
2023-10-19T02:13:00.071Z,15.73
2023-10-19T02:17:11.030Z,19.40
2023-10-19T02:21:15.804Z,18.90
2023-10-19T02:25:18.795Z,18.20
2023-10-19T02:29:20.636Z,19.85
2023-10-19T02:33:22.323Z,22.80
2023-10-19T02:37:26.449Z,26.33
2023-10-19T02:41:29.814Z,23.08
2023-10-19T02:45:32.556Z,26.25
2023-10-19T02:49:39.627Z,23.42
2023-10-19T02:53:41.462Z,25.63
2023-10-19T02:57:47.807Z,28.73
2023-10-19T03:01:52.187Z,28.13
2023-10-19T03:05:56.951Z,24.52
2023-10-19T03:10:02.553Z,22.92
2023-10-19T03:14:06.493Z,28.55
2023-10-19T03:18:09.204Z,20.80
2023-10-19T03:22:13.055Z,25.40
2023-10-19T03:26:38.021Z,27.35
2023-10-19T03:30:41.100Z,28.08
2023-10-19T03:34:49.410Z,28.17
2023-10-19T03:38:52.673Z,29.73
2023-10-19T03:42:56.132Z,32.00
2023-10-19T03:46:59.423Z,32.10
2023-10-19T03:51:03.652Z,29.65
2023-10-19T03:55:26.506Z,31.65
2023-10-19T03:59:33.943Z,32.67
2023-10-19T04:03:37.859Z,32.53
2023-10-19T04:07:39.673Z,30.48
2023-10-19T04:11:51.061Z,31.77
2023-10-19T04:15:54.587Z,31.27
2023-10-19T04:19:56.996Z,34.88
2023-10-19T04:24:00.490Z,36.35
2023-10-19T04:28:02.233Z,41.72
2023-10-19T04:32:08.100Z,38.53
2023-10-19T04:36:12.631Z,39.92
2023-10-19T04:40:14.402Z,31.70
2023-10-19T04:44:16.802Z,40.53
2023-10-19T04:48:18.848Z,38.33
2023-10-19T04:52:20.622Z,38.87
2023-10-19T04:56:23.059Z,34.17
2023-10-19T05:00:26.069Z,47.58
2023-10-19T05:04:31.264Z,42.22
2023-10-19T05:08:35.357Z,51.80
2023-10-19T05:12:37.099Z,41.25
2023-10-19T05:16:39.661Z,43.65
2023-10-19T05:20:41.863Z,40.37
2023-10-19T05:24:43.617Z,40.75
2023-10-19T05:28:45.432Z,41.55
2023-10-19T05:32:48.047Z,36.92
2023-10-19T05:36:53.244Z,28.67
2023-10-19T05:40:57.330Z,39.65
2023-10-19T05:45:00.702Z,35.20
2023-10-19T05:49:05.085Z,39.75
2023-10-19T05:53:07.670Z,36.63
2023-10-19T06:01:12.341Z,33.83
2023-10-19T06:05:18.285Z,29.52
2023-10-19T06:09:20.761Z,38.97
2023-10-19T06:13:24.327Z,38.00
2023-10-19T06:17:29.386Z,41.45
2023-10-19T06:21:33.275Z,32.35
2023-10-19T06:25:37.932Z,33.25
2023-10-19T06:29:39.660Z,39.20
2023-10-19T06:33:42.897Z,34.58
2023-10-19T06:37:45.508Z,41.53
2023-10-19T06:41:47.270Z,33.05
2023-10-19T06:45:49.332Z,38.78
2023-10-19T06:49:52.364Z,37.07
2023-10-19T06:53:54.335Z,33.90
2023-10-19T06:57:56.922Z,32.90
2023-10-19T07:02:02.681Z,27.55
2023-10-19T07:06:09.994Z,29.27
2023-10-19T07:10:15.132Z,23.88
2023-10-19T07:14:16.928Z,22.83
2023-10-19T07:18:19.958Z,21.05
2023-10-19T07:22:25.415Z,24.10
2023-10-19T07:26:32.770Z,21.52
2023-10-19T07:30:34.719Z,18.27
2023-10-19T07:34:36.498Z,18.67
2023-10-19T07:38:39.999Z,17.02
2023-10-19T07:42:44.147Z,23.02
2023-10-19T07:46:46.076Z,18.98
2023-10-19T07:50:47.951Z,17.73
2023-10-19T07:54:50.825Z,19.20
2023-10-19T07:58:52.771Z,21.75
2023-10-19T08:02:57.604Z,21.33
2023-10-19T08:07:00.025Z,19.27
2023-10-19T08:11:02.235Z,22.20
2023-10-19T08:19:08.798Z,19.08
2023-10-19T08:23:10.619Z,17.65
2023-10-19T08:27:14.673Z,19.13
2023-10-19T08:31:16.462Z,18.35
2023-10-19T08:35:26.690Z,23.67
2023-10-19T08:39:28.811Z,16.95
2023-10-19T08:43:33.269Z,13.73
2023-10-19T08:47:38.215Z,15.30
2023-10-19T08:51:42.848Z,11.23
2023-10-19T08:55:49.191Z,11.38
2023-10-19T08:59:51.980Z,11.20
2023-10-19T09:03:53.843Z,9.35
2023-10-19T09:07:56.406Z,6.90
2023-10-19T09:11:58.168Z,7.15
2023-10-19T09:16:06.239Z,6.70
2023-10-19T09:20:11.287Z,7.30
2023-10-19T09:24:13.095Z,6.43
2023-10-19T09:28:15.159Z,8.30
2023-10-19T09:32:18.214Z,6.03
2023-10-19T09:36:21.963Z,4.75
2023-10-19T09:40:25.144Z,6.80
2023-10-19T09:44:32.685Z,10.85
2023-10-19T09:48:40.509Z,10.27
2023-10-19T09:52:43.022Z,7.55
2023-10-19T09:56:55.143Z,5.95
2023-10-19T10:00:58.893Z,8.50
2023-10-19T10:05:01.112Z,7.95
2023-10-19T10:09:04.859Z,4.88
2023-10-19T10:13:25.090Z,9.40
2023-10-19T10:17:30.417Z,5.55
2023-10-19T10:21:32.375Z,6.95
2023-10-19T10:25:35.691Z,6.03
2023-10-19T10:29:37.577Z,7.05
2023-10-19T10:33:49.073Z,5.23
2023-10-19T10:37:55.941Z,5.95
2023-10-19T10:41:58.969Z,4.75
2023-10-19T10:46:08.800Z,4.43
2023-10-19T10:50:11.617Z,6.13
2023-10-19T10:54:22.816Z,5.47
2023-10-19T10:58:25.442Z,6.90
2023-10-19T11:06:28.929Z,5.72
2023-10-19T11:10:31.923Z,7.13
2023-10-19T11:14:35.861Z,5.05
2023-10-19T11:18:51.278Z,7.93
2023-10-19T11:22:57.209Z,7.03
2023-10-19T12:04:22.546Z,7.03
2023-10-19T12:08:24.808Z,9.30
2023-10-19T12:12:26.587Z,8.68
2023-10-19T12:16:28.963Z,7.90
2023-10-19T12:20:32.436Z,7.38
2023-10-19T12:24:35.279Z,5.50
2023-10-19T12:57:47.496Z,4.32
2023-10-19T13:02:01.945Z,6.43
2023-10-19T13:06:08.613Z,7.90
2023-10-19T13:10:10.553Z,9.00
2023-10-19T13:14:13.449Z,8.90
2023-10-19T13:18:20.816Z,6.50
2023-10-19T13:22:23.045Z,12.48
2023-10-19T13:26:25.617Z,7.80
2023-10-19T13:30:27.350Z,6.82
2023-10-19T13:34:29.200Z,7.50
2023-10-19T13:38:31.407Z,8.83
2023-10-19T13:42:34.503Z,6.47
2023-10-19T13:46:36.853Z,11.35
2023-10-19T13:50:49.870Z,8.45
2023-10-19T13:54:52.683Z,7.70
2023-10-19T13:58:54.426Z,10.57
2023-10-19T14:02:56.294Z,9.70
2023-10-19T14:06:58.077Z,10.73
2023-10-19T14:11:04.355Z,9.07
2023-10-19T14:15:07.323Z,9.25
2023-10-19T14:19:10.042Z,9.43
2023-10-19T14:27:16.393Z,8.45
2023-10-19T14:31:18.300Z,11.07
2023-10-19T14:35:21.940Z,12.00
2023-10-19T14:39:25.973Z,8.85
2023-10-19T14:43:30.485Z,9.65
2023-10-19T14:47:32.687Z,8.60
2023-10-19T14:51:34.444Z,11.07
2023-10-19T14:55:37.399Z,11.45
2023-10-19T14:59:39.158Z,11.38
2023-10-19T15:03:40.914Z,10.82
2023-10-19T15:07:45.006Z,16.92
2023-10-19T15:11:46.814Z,10.57
2023-10-19T15:15:48.622Z,14.65
2023-10-19T15:19:53.733Z,9.77
2023-10-19T15:23:55.462Z,11.93
2023-10-19T15:27:57.199Z,9.82
2023-10-19T15:31:59.022Z,6.47
2023-10-19T15:36:00.853Z,9.43
2023-10-19T15:40:05.089Z,8.85
2023-10-19T15:44:07.380Z,7.18
2023-10-19T15:48:12.672Z,8.45
2023-10-19T15:52:14.428Z,9.68
2023-10-19T15:56:19.190Z,6.75
2023-10-19T16:00:23.022Z,8.57
2023-10-19T16:04:24.868Z,9.25
2023-10-19T16:08:27.281Z,7.22
2023-10-19T16:12:29.083Z,8.32
2023-10-19T16:16:30.833Z,9.38
2023-10-19T16:20:32.673Z,8.27
2023-10-19T16:24:34.637Z,7.37
2023-10-19T16:28:36.392Z,8.57
2023-10-19T16:32:41.260Z,10.07
2023-10-19T16:36:43.762Z,8.85
2023-10-19T16:40:46.133Z,9.95
2023-10-19T16:44:48.000Z,12.77
2023-10-19T16:48:49.884Z,8.53
2023-10-19T16:52:51.918Z,11.15
2023-10-19T16:56:53.639Z,10.27
2023-10-19T17:00:56.522Z,7.20
2023-10-19T17:05:00.540Z,10.52
2023-10-19T17:09:14.346Z,10.60
2023-10-19T17:13:16.868Z,10.48
2023-10-19T17:17:21.186Z,7.20
2023-10-19T17:21:24.177Z,9.77
2023-10-19T17:29:28.508Z,12.90
2023-10-19T17:33:32.519Z,11.02
2023-10-19T17:37:34.891Z,12.82
2023-10-19T17:41:36.707Z,12.10
2023-10-19T17:45:38.519Z,9.75
2023-10-19T17:49:40.333Z,12.15
2023-10-19T17:53:42.279Z,8.30
2023-10-19T17:57:46.889Z,11.52
2023-10-19T18:01:49.203Z,9.50
2023-10-19T18:05:51.215Z,12.82
2023-10-19T18:09:54.150Z,8.65
2023-10-19T18:17:58.643Z,7.57
2023-10-19T18:22:00.478Z,10.20
2023-10-19T18:26:02.998Z,9.73
2023-10-19T18:30:05.755Z,8.20
2023-10-19T18:34:08.164Z,10.82
2023-10-19T18:38:09.945Z,8.30
2023-10-19T18:42:12.718Z,14.90
2023-10-19T18:50:32.943Z,10.52
2023-10-19T18:54:36.643Z,11.60
2023-10-19T18:58:39.316Z,10.20
2023-10-19T19:02:42.755Z,6.35
2023-10-19T19:06:45.323Z,6.28
2023-10-19T19:10:47.282Z,11.43
2023-10-19T19:14:49.141Z,6.53
2023-10-19T19:18:50.986Z,13.48
2023-10-19T19:22:54.050Z,7.05
2023-10-19T19:26:55.875Z,7.03
2023-10-19T19:30:57.611Z,8.32
2023-10-19T19:35:00.300Z,11.32
2023-10-19T19:39:02.668Z,9.88
2023-10-19T19:43:04.560Z,7.50
2023-10-19T19:47:07.760Z,10.57
2023-10-19T19:51:11.014Z,10.93
2023-10-19T19:55:14.218Z,12.48
2023-10-19T19:59:16.175Z,10.93
2023-10-19T20:03:18.129Z,10.27
2023-10-19T20:07:20.048Z,9.40
2023-10-19T20:11:21.931Z,9.73
2023-10-19T20:15:23.849Z,9.77
2023-10-19T20:19:25.920Z,10.73
2023-10-19T20:23:27.907Z,14.70
2023-10-19T20:27:29.726Z,12.73
2023-10-19T20:31:32.936Z,13.82
2023-10-19T20:35:35.017Z,17.63
2023-10-19T20:39:38.898Z,11.90
2023-10-19T20:43:44.168Z,12.18
2023-10-19T20:47:51.334Z,12.18
2023-10-19T20:51:53.606Z,10.98
2023-10-19T20:56:06.157Z,12.07
2023-10-19T21:00:13.346Z,11.13
2023-10-19T21:04:15.299Z,15.25
2023-10-19T21:08:17.174Z,16.73
2023-10-19T21:12:18.931Z,9.68
2023-10-19T21:16:21.851Z,9.15
2023-10-19T21:20:23.657Z,6.63
2023-10-19T21:24:25.371Z,11.88
2023-10-19T21:28:27.270Z,7.85
2023-10-19T21:32:29.112Z,8.23
2023-10-19T21:36:31.164Z,9.33
2023-10-19T21:40:33.084Z,9.85
2023-10-19T21:44:38.381Z,15.30
2023-10-19T21:48:41.645Z,7.93
2023-10-19T21:52:43.443Z,6.88
2023-10-19T21:56:45.120Z,9.55
2023-10-19T22:00:58.054Z,9.30
2023-10-19T22:09:17.793Z,7.63
2023-10-19T22:13:19.577Z,11.43
2023-10-19T22:17:21.396Z,8.25
2023-10-19T22:21:23.337Z,7.25
2023-10-19T22:25:25.167Z,6.63
2023-10-19T22:29:27.289Z,8.02
2023-10-19T22:33:29.096Z,5.72
2023-10-19T22:37:30.847Z,6.80
2023-10-19T22:41:32.563Z,7.40
2023-10-19T22:45:34.365Z,9.73
2023-10-19T22:49:36.110Z,7.88
2023-10-19T22:53:42.278Z,7.63
2023-10-19T22:57:44.918Z,4.85
2023-10-19T23:01:46.735Z,5.88
2023-10-19T23:05:48.650Z,7.40
2023-10-19T23:09:50.406Z,6.15
2023-10-19T23:13:53.736Z,8.40
2023-10-19T23:17:55.584Z,5.75
2023-10-19T23:21:58.103Z,8.52
2023-10-19T23:26:02.080Z,9.35
2023-10-19T23:30:08.057Z,5.25
2023-10-19T23:34:09.750Z,5.80
2023-10-19T23:38:11.511Z,14.90
2023-10-19T23:42:15.945Z,4.75
2023-10-19T23:46:21.584Z,6.90
2023-10-19T23:50:23.404Z,8.07
2023-10-19T23:54:26.825Z,8.05
2023-10-19T23:58:28.930Z,7.20
